Time;durP1;ratioP1;P1;durP2;ratioP2;P2;SDS_P1;SDS_P2;PMS_P1;PMS_P2;Temp;Humidity;BMP_temperature;BMP_pressure;BME280_temperature;BME280_humidity;BME280_pressure;Samples;Min_cycle;Max_cycle;Signal;HPM_P1;HPM_P2
2021/04/18 00:00:26;;;;;;;14.78;11.05;;;;;;;13.96;57.53;101853.95;1771048;81;21121;-48
2021/04/18 00:02:53;;;;;;;13.98;11.93;;;;;;;13.95;57.53;101841.73;1741824;81;21155;-46
2021/04/18 00:05:24;;;;;;;14.33;12.58;;;;;;;13.94;57.48;101840.03;1769131;81;21156;-50
2021/04/18 00:08:01;;;;;;;11.77;10.63;;;;;;;13.95;57.59;101837.81;1773661;80;21303;-51
2021/04/18 00:10:23;;;;;;;10.88;9.73;;;;;;;13.94;57.91;101836.11;1755203;81;21686;-49
2021/04/18 00:12:50;;;;;;;9.68;8.68;;;;;;;13.91;58.52;101840.07;1766783;81;21193;-50
2021/04/18 00:15:19;;;;;;;9.85;8.95;;;;;;;13.87;58.80;101841.02;1767469;81;21549;-45
2021/04/18 00:17:47;;;;;;;8.80;8.00;;;;;;;13.83;58.97;101844.14;1766734;81;21290;-46
2021/04/18 00:20:15;;;;;;;10.58;8.40;;;;;;;13.81;59.00;101845.05;1767249;81;21133;-48
2021/04/18 00:22:44;;;;;;;10.90;9.15;;;;;;;13.84;59.20;101847.63;1757928;81;21196;-46
2021/04/18 00:25:15;;;;;;;11.63;9.20;;;;;;;13.84;59.19;101848.50;1730218;82;21179;-49
2021/04/18 00:27:46;;;;;;;9.85;8.95;;;;;;;13.88;58.62;101851.92;1756747;81;21281;-48
2021/04/18 00:30:18;;;;;;;9.83;8.85;;;;;;;13.90;58.37;101851.45;1728667;82;21147;-49
2021/04/18 00:32:45;;;;;;;10.58;9.48;;;;;;;13.91;58.52;101857.08;1718900;82;21194;-50
2021/04/18 00:35:15;;;;;;;9.35;8.48;;;;;;;13.92;58.43;101855.34;1728090;82;21176;-46
2021/04/18 00:37:43;;;;;;;9.40;8.43;;;;;;;13.93;58.08;101853.98;1732726;82;21154;-45
2021/04/18 00:40:15;;;;;;;9.48;8.60;;;;;;;13.93;57.71;101860.53;1769001;81;21165;-45
2021/04/18 00:42:43;;;;;;;10.53;9.63;;;;;;;13.93;57.33;101863.15;1767623;80;21156;-46
2021/04/18 00:45:12;;;;;;;9.88;8.98;;;;;;;13.94;57.09;101867.50;1771626;80;21141;-46
2021/04/18 00:47:49;;;;;;;11.83;9.85;;;;;;;13.91;57.12;101861.00;1749125;82;21612;-50
2021/04/18 00:50:30;;;;;;;10.38;9.30;;;;;;;13.86;57.08;101867.66;1786011;80;21559;-48
2021/04/18 00:52:59;;;;;;;10.03;8.70;;;;;;;13.82;57.02;101863.80;1784979;80;21136;-45
2021/04/18 00:55:27;;;;;;;10.85;9.88;;;;;;;13.78;56.96;101869.55;1770701;80;21163;-48
2021/04/18 00:57:56;;;;;;;11.40;10.30;;;;;;;13.75;57.03;101866.09;1734689;82;21119;-49
2021/04/18 01:00:25;;;;;;;11.63;10.43;;;;;;;13.71;57.00;101858.75;1733330;82;21160;-46
2021/04/18 01:02:53;;;;;;;10.95;9.48;;;;;;;13.67;56.94;101856.20;1751727;82;21148;-51
2021/04/18 01:05:22;;;;;;;11.55;10.38;;;;;;;13.72;56.69;101860.93;1780031;80;21143;-48
2021/04/18 01:07:51;;;;;;;11.48;10.48;;;;;;;13.70;56.43;101860.93;1772166;80;21105;-48
2021/04/18 01:10:18;;;;;;;13.35;12.15;;;;;;;13.65;56.43;101859.30;1778135;80;21164;-51
2021/04/18 01:12:47;;;;;;;14.87;13.55;;;;;;;13.64;56.71;101857.58;1777581;80;21160;-45
2021/04/18 01:15:17;;;;;;;16.23;14.73;;;;;;;13.62;56.90;101856.75;1774332;80;22227;-49
2021/04/18 01:17:45;;;;;;;16.95;15.18;;;;;;;13.59;57.02;101861.58;1785388;80;21148;-49
2021/04/18 01:20:18;;;;;;;17.55;15.70;;;;;;;13.58;57.18;101860.30;1771380;80;21116;-50
2021/04/18 01:22:47;;;;;;;22.48;18.92;;;;;;;13.55;57.33;101865.56;1777911;80;21157;-48
2021/04/18 01:25:33;;;;;;;27.22;24.27;;;;;;;13.59;57.37;101867.24;1792228;79;28032;-46
2021/04/18 01:28:10;;;;;;;19.87;16.67;;;;;;;13.60;57.31;101867.68;1765847;80;21116;-50
2021/04/18 01:30:38;;;;;;;15.50;13.90;;;;;;;13.64;57.03;101868.05;1767768;80;21147;-46
2021/04/18 01:33:08;;;;;;;15.50;13.98;;;;;;;13.69;56.68;101869.69;1763506;80;21172;-46
2021/04/18 01:35:36;;;;;;;19.12;17.07;;;;;;;13.64;56.49;101874.59;1781953;80;21195;-49
2021/04/18 01:38:05;;;;;;;31.27;23.10;;;;;;;13.57;56.57;101871.64;1778732;80;21144;-48
2021/04/18 01:40:34;;;;;;;22.93;19.98;;;;;;;13.68;56.25;101867.10;1770164;80;21141;-46
2021/04/18 01:43:03;;;;;;;19.87;17.73;;;;;;;13.67;56.26;101871.90;1776976;80;21137;-46
2021/04/18 01:45:31;;;;;;;18.48;16.55;;;;;;;13.49;56.57;101869.59;1719957;80;21160;-48
2021/04/18 01:48:00;;;;;;;21.77;18.67;;;;;;;13.43;56.54;101873.61;1784598;80;21157;-47
2021/04/18 01:50:31;;;;;;;23.50;17.65;;;;;;;13.37;56.46;101869.35;1772838;80;21573;-46
2021/04/18 01:53:02;;;;;;;18.35;16.60;;;;;;;13.33;56.50;101864.19;1727186;80;21120;-49
2021/04/18 01:55:31;;;;;;;19.77;17.77;;;;;;;13.29;56.40;101867.73;1773465;80;21549;-48
2021/04/18 01:58:00;;;;;;;17.40;15.60;;;;;;;13.25;56.45;101860.83;1770958;80;21155;-48
2021/04/18 02:00:49;;;;;;;15.10;13.60;;;;;;;13.25;56.67;101860.83;1767357;79;23087;-47
2021/04/18 02:03:17;;;;;;;14.60;13.30;;;;;;;13.17;56.81;101860.09;1749601;82;21608;-50
2021/04/18 02:05:46;;;;;;;13.28;11.97;;;;;;;13.15;56.80;101856.63;1737026;82;21179;-49
2021/04/18 02:08:25;;;;;;;12.80;11.60;;;;;;;13.16;56.92;101853.12;1766821;79;23534;-50
2021/04/18 02:10:54;;;;;;;13.45;12.25;;;;;;;13.11;56.90;101861.48;1753478;82;21208;-48
2021/04/18 02:13:23;;;;;;;14.63;13.25;;;;;;;13.11;56.71;101862.80;1753462;82;21161;-46
2021/04/18 02:16:04;;;;;;;11.90;10.90;;;;;;;13.12;56.55;101857.97;1762881;79;23519;-46
2021/04/18 02:18:33;;;;;;;13.90;12.50;;;;;;;13.05;56.63;101854.14;1744426;82;21595;-46
2021/04/18 02:21:02;;;;;;;13.90;12.60;;;;;;;13.04;56.65;101862.84;1732173;82;21176;-48
2021/04/18 02:23:31;;;;;;;14.55;13.18;;;;;;;13.02;56.49;101860.67;1743356;82;21319;-49
2021/04/18 02:26:01;;;;;;;16.00;14.47;;;;;;;13.02;56.48;101865.05;1735283;82;21607;-49
2021/04/18 02:28:29;;;;;;;13.95;12.65;;;;;;;12.99;56.53;101854.20;1739137;82;21141;-47
2021/04/18 02:30:58;;;;;;;12.88;11.70;;;;;;;12.99;56.64;101854.20;1731953;82;21168;-49
2021/04/18 02:33:31;;;;;;;12.80;11.60;;;;;;;12.98;56.70;101852.45;1736011;82;21124;-49
2021/04/18 02:36:00;;;;;;;13.28;12.05;;;;;;;12.99;56.70;101845.05;1741504;82;21152;-48
2021/04/18 02:38:28;;;;;;;13.83;11.57;;;;;;;13.00;56.48;101846.77;1733963;82;21605;-46
2021/04/18 02:40:55;;;;;;;19.23;13.53;;;;;;;13.01;56.35;101848.50;1744569;82;21283;-48
2021/04/18 02:43:23;;;;;;;13.18;11.78;;;;;;;12.98;56.40;101849.00;1732156;82;21286;-47
2021/04/18 02:45:52;;;;;;;12.88;11.10;;;;;;;12.92;56.71;101849.09;1741970;82;21160;-49
2021/04/18 02:48:20;;;;;;;13.32;10.93;;;;;;;12.89;56.94;101854.34;1741484;82;21545;-49
2021/04/18 02:50:48;;;;;;;12.30;10.32;;;;;;;12.89;57.15;101854.34;1735158;82;21140;-47
2021/04/18 02:53:16;;;;;;;12.15;10.90;;;;;;;12.87;57.17;101856.98;1738790;82;21581;-49
2021/04/18 02:55:44;;;;;;;14.55;10.55;;;;;;;12.85;56.98;101850.92;1738626;82;21216;-46
2021/04/18 02:58:26;;;;;;;11.43;10.28;;;;;;;12.85;57.04;101847.00;1744893;82;21185;-48
2021/04/18 03:00:55;;;;;;;10.80;9.85;;;;;;;12.85;56.94;101841.78;1738299;82;21541;-49
2021/04/18 03:03:24;;;;;;;10.10;9.18;;;;;;;12.83;56.98;101846.16;1728771;82;21152;-47
2021/04/18 03:05:52;;;;;;;11.65;10.45;;;;;;;12.82;57.02;101837.89;1737069;82;21186;-47
2021/04/18 03:08:20;;;;;;;12.75;11.48;;;;;;;12.83;57.01;101842.67;1736971;82;21165;-50
2021/04/18 03:10:48;;;;;;;18.45;14.30;;;;;;;12.82;56.86;101839.63;1732129;82;21184;-46
2021/04/18 03:13:20;;;;;;;15.53;13.95;;;;;;;12.81;56.79;101833.56;1737262;82;21612;-51
2021/04/18 03:15:48;;;;;;;14.05;12.65;;;;;;;12.80;56.73;101834.43;1731287;82;21117;-46
2021/04/18 03:18:17;;;;;;;13.55;11.73;;;;;;;12.77;56.70;101829.27;1721436;82;21312;-48
2021/04/18 03:20:47;;;;;;;13.10;11.18;;;;;;;12.75;57.01;101827.12;1728109;82;21137;-49
2021/04/18 03:23:16;;;;;;;11.18;10.15;;;;;;;12.70;57.55;101825.00;1724740;82;21157;-50
2021/04/18 03:25:44;;;;;;;11.95;10.30;;;;;;;12.62;58.26;101829.46;1725605;82;21582;-47
2021/04/18 03:28:14;;;;;;;11.18;10.08;;;;;;;12.53;58.89;101829.56;1724587;82;21165;-47
2021/04/18 03:30:44;;;;;;;11.68;10.25;;;;;;;12.45;59.60;101825.32;1726943;82;21157;-46
2021/04/18 03:33:13;;;;;;;11.03;10.05;;;;;;;12.46;59.52;101830.55;1713259;82;21610;-46
2021/04/18 03:35:43;;;;;;;11.35;10.18;;;;;;;12.53;59.42;101830.88;1724559;82;21181;-49
2021/04/18 03:38:13;;;;;;;13.40;10.48;;;;;;;12.64;59.28;101829.00;1725231;82;21181;-47
2021/04/18 03:40:42;;;;;;;12.80;10.72;;;;;;;12.74;59.12;101833.64;1730245;82;21165;-45
2021/04/18 03:43:10;;;;;;;11.88;10.75;;;;;;;12.82;58.97;101827.44;1725706;82;21134;-49
2021/04/18 03:45:39;;;;;;;11.20;10.03;;;;;;;12.93;58.79;101832.08;1728169;82;21578;-48
2021/04/18 03:48:09;;;;;;;11.00;10.00;;;;;;;12.97;59.02;101832.45;1714324;82;21172;-46
2021/04/18 03:50:37;;;;;;;11.48;10.38;;;;;;;13.02;59.11;101828.48;1708902;82;21110;-50
2021/04/18 03:53:16;;;;;;;11.48;10.38;;;;;;;13.15;59.31;101835.73;1771768;79;23100;-49
2021/04/18 03:55:46;;;;;;;13.13;11.35;;;;;;;13.17;59.35;101831.34;1738265;82;21137;-49
2021/04/18 03:58:15;;;;;;;11.18;10.18;;;;;;;13.20;59.38;101833.89;1737510;82;21577;-49
2021/04/18 04:00:44;;;;;;;11.68;10.48;;;;;;;13.23;59.40;101837.78;1737117;82;21113;-49
2021/04/18 04:03:12;;;;;;;11.15;10.05;;;;;;;13.27;59.45;101836.38;1750319;82;21192;-48
2021/04/18 04:05:43;;;;;;;11.30;10.10;;;;;;;13.30;59.42;101836.77;1734462;82;21180;-46
2021/04/18 04:08:14;;;;;;;11.90;10.70;;;;;;;13.32;59.47;101835.00;1738680;82;21140;-46
2021/04/18 04:10:44;;;;;;;12.37;10.93;;;;;;;13.34;59.24;101839.76;1737971;82;21180;-50
2021/04/18 04:13:15;;;;;;;11.60;10.60;;;;;;;13.37;59.16;101846.26;1711559;82;21680;-50
2021/04/18 04:15:45;;;;;;;11.63;10.43;;;;;;;13.36;58.93;101841.47;1736475;82;21133;-49
2021/04/18 04:18:14;;;;;;;10.95;9.90;;;;;;;13.33;58.78;101843.28;1742627;82;21154;-51
2021/04/18 04:20:44;;;;;;;11.90;10.75;;;;;;;13.30;58.76;101843.31;1727762;80;21573;-49
2021/04/18 04:23:30;;;;;;;10.65;9.70;;;;;;;13.28;58.87;101834.63;1732081;82;21125;-49
2021/04/18 04:26:02;;;;;;;10.72;9.75;;;;;;;13.28;58.82;101826.79;1738399;82;21730;-49
2021/04/18 04:28:30;;;;;;;11.53;10.43;;;;;;;13.28;58.64;101829.40;1740249;82;21155;-48
2021/04/18 04:30:58;;;;;;;10.23;9.33;;;;;;;13.29;58.53;101832.45;1734461;82;21176;-49
2021/04/18 04:33:26;;;;;;;10.38;8.83;;;;;;;13.29;58.56;101834.59;1734454;82;21149;-49
2021/04/18 04:35:54;;;;;;;9.65;8.85;;;;;;;13.28;58.55;101834.19;1739755;82;21145;-47
2021/04/18 04:38:22;;;;;;;10.65;9.38;;;;;;;13.27;58.65;101836.38;1737910;82;21165;-45
2021/04/18 04:40:50;;;;;;;10.45;9.45;;;;;;;13.26;58.63;101836.41;1738845;82;21177;-50
2021/04/18 04:43:17;;;;;;;10.75;9.53;;;;;;;13.27;58.62;101831.61;1737196;82;21173;-49
2021/04/18 04:45:45;;;;;;;9.45;8.65;;;;;;;13.28;58.56;101834.63;1741061;82;21192;-48
2021/04/18 04:48:13;;;;;;;10.03;9.13;;;;;;;13.26;58.53;101831.17;1729267;82;22287;-46
2021/04/18 04:50:41;;;;;;;10.13;9.10;;;;;;;13.25;58.51;101836.00;1736877;81;21152;-46
2021/04/18 04:53:09;;;;;;;9.85;8.95;;;;;;;13.25;58.43;101841.23;1739343;82;21113;-50
2021/04/18 04:55:37;;;;;;;10.75;9.70;;;;;;;13.26;58.31;101836.41;1738761;82;21141;-46
2021/04/18 04:58:05;;;;;;;10.70;9.58;;;;;;;13.31;58.23;101848.54;1738081;82;21335;-49
2021/04/18 05:00:33;;;;;;;10.50;9.33;;;;;;;13.39;57.84;101849.28;1742070;82;21183;-46
2021/04/18 05:03:01;;;;;;;11.22;9.98;;;;;;;13.41;57.45;101841.41;1726254;82;21168;-45
2021/04/18 05:05:31;;;;;;;11.00;9.93;;;;;;;13.43;57.39;101843.55;1738034;82;21136;-48
2021/04/18 05:07:59;;;;;;;10.72;9.65;;;;;;;13.45;57.39;101840.46;1737483;82;21306;-49
2021/04/18 05:10:27;;;;;;;12.70;10.82;;;;;;;13.49;57.47;101844.75;1736962;82;21608;-49
2021/04/18 05:12:55;;;;;;;11.40;10.32;;;;;;;13.53;57.63;101844.69;1742548;80;21170;-48
2021/04/18 05:15:23;;;;;;;11.75;10.55;;;;;;;13.59;57.70;101845.02;1732407;82;21569;-46
2021/04/18 05:17:51;;;;;;;12.20;11.00;;;;;;;13.61;57.61;101845.85;1732316;82;21121;-49
2021/04/18 05:20:19;;;;;;;12.50;11.30;;;;;;;13.64;57.91;101853.66;1743141;80;21149;-51
2021/04/18 05:22:47;;;;;;;13.13;11.93;;;;;;;13.69;58.08;101850.06;1736760;82;21151;-52
2021/04/18 05:25:15;;;;;;;14.45;13.15;;;;;;;13.79;58.10;101857.30;1738023;82;21573;-48
2021/04/18 05:27:43;;;;;;;14.73;13.25;;;;;;;13.85;58.03;101858.06;1741600;82;21148;-46
2021/04/18 05:30:13;;;;;;;31.95;24.60;;;;;;;13.92;57.99;101860.56;1734664;82;21196;-46
2021/04/18 05:32:40;;;;;;;50.25;38.63;;;;;;;13.98;57.89;101861.33;1737142;82;21161;-49
2021/04/18 05:35:10;;;;;;;20.23;18.05;;;;;;;14.03;57.98;101863.86;1737332;82;21719;-47
2021/04/18 05:37:40;;;;;;;16.97;15.28;;;;;;;14.08;57.92;101860.27;1741655;82;21585;-46
2021/04/18 05:40:09;;;;;;;15.98;14.47;;;;;;;14.11;57.81;101855.42;1733147;82;21148;-45
2021/04/18 05:42:37;;;;;;;16.85;15.25;;;;;;;14.13;57.91;101857.13;1744870;81;21588;-48
2021/04/18 05:45:06;;;;;;;16.50;14.45;;;;;;;14.20;57.94;101860.03;1732960;82;21156;-48
2021/04/18 05:47:34;;;;;;;16.57;14.98;;;;;;;14.28;57.73;101856.84;1749889;82;21141;-50
2021/04/18 05:50:04;;;;;;;16.12;14.63;;;;;;;14.31;57.76;101858.11;1740665;82;21160;-45
2021/04/18 05:52:32;;;;;;;15.63;14.13;;;;;;;14.30;57.90;101861.60;1741405;81;21195;-48
2021/04/18 05:55:00;;;;;;;16.07;14.47;;;;;;;14.31;57.94;101861.16;1733682;82;21152;-49
2021/04/18 05:57:27;;;;;;;16.85;15.15;;;;;;;14.34;58.03;101854.11;1744747;82;21588;-44
2021/04/18 05:59:55;;;;;;;16.00;13.60;;;;;;;14.40;58.12;101855.33;1732275;82;21200;-48
2021/04/18 06:02:25;;;;;;;14.10;12.73;;;;;;;14.47;57.84;101851.67;1751109;82;21124;-45
2021/04/18 06:04:53;;;;;;;12.88;11.68;;;;;;;14.51;57.36;101848.09;1742938;82;21212;-45
2021/04/18 06:07:22;;;;;;;11.97;10.53;;;;;;;14.56;57.18;101844.95;1732281;82;21294;-48
2021/04/18 06:09:49;;;;;;;12.85;11.48;;;;;;;14.60;57.16;101849.22;1732247;82;21285;-45
2021/04/18 06:12:19;;;;;;;12.43;11.22;;;;;;;14.67;57.12;101854.73;1742444;82;21306;-45
2021/04/18 06:14:47;;;;;;;11.80;10.60;;;;;;;14.79;56.78;101844.89;1736772;82;21160;-48
2021/04/18 06:17:15;;;;;;;13.70;12.30;;;;;;;14.84;56.75;101843.05;1737918;82;21144;-47
2021/04/18 06:19:43;;;;;;;13.80;12.37;;;;;;;14.85;56.93;101839.52;1741792;82;21597;-45
2021/04/18 06:22:11;;;;;;;23.62;21.23;;;;;;;14.90;57.04;101835.05;1734678;82;21172;-46
2021/04/18 06:24:39;;;;;;;22.45;20.20;;;;;;;14.96;56.90;101846.70;1741210;82;21153;-46
2021/04/18 06:27:08;;;;;;;24.72;22.20;;;;;;;15.03;56.89;101843.03;1738116;82;21192;-48
2021/04/18 06:29:36;;;;;;;23.25;20.75;;;;;;;15.08;56.81;101838.13;1745353;82;21509;-49
2021/04/18 06:32:05;;;;;;;21.87;19.75;;;;;;;15.16;56.58;101845.80;1739028;82;21170;-49
2021/04/18 06:34:33;;;;;;;18.30;14.95;;;;;;;15.20;56.36;101838.27;1732334;82;21157;-49
2021/04/18 06:37:02;;;;;;;15.05;13.55;;;;;;;15.25;56.41;101840.34;1750028;82;21628;-46
2021/04/18 06:39:30;;;;;;;13.15;11.95;;;;;;;15.33;56.24;101841.03;1739462;82;21149;-50
2021/04/18 06:42:01;;;;;;;12.40;11.20;;;;;;;15.40;55.50;101834.72;1737200;82;21117;-46
2021/04/18 06:44:32;;;;;;;12.25;11.15;;;;;;;15.47;55.02;101833.71;1741595;82;21140;-51
2021/04/18 06:47:01;;;;;;;10.58;9.58;;;;;;;15.47;55.03;101829.77;1734239;82;21120;-48
2021/04/18 06:49:29;;;;;;;9.28;8.48;;;;;;;15.44;55.03;101829.84;1744696;82;21113;-49
2021/04/18 06:51:57;;;;;;;10.63;9.23;;;;;;;15.42;55.04;101827.67;1732834;82;21212;-45
2021/04/18 06:54:26;;;;;;;10.25;9.25;;;;;;;15.45;54.83;101831.58;1741074;82;21196;-49
2021/04/18 06:56:54;;;;;;;9.75;8.80;;;;;;;15.49;54.42;101829.28;1738071;82;21275;-46
2021/04/18 06:59:21;;;;;;;10.60;9.58;;;;;;;15.51;54.22;101824.86;1736192;82;21124;-46
2021/04/18 07:01:50;;;;;;;10.23;9.25;;;;;;;15.54;53.25;101814.28;1735026;82;21160;-47
2021/04/18 07:04:21;;;;;;;10.48;9.40;;;;;;;15.54;53.33;101814.28;1732032;82;21144;-46
2021/04/18 07:06:51;;;;;;;9.08;8.18;;;;;;;15.60;53.24;101814.12;1740615;82;21616;-48
2021/04/18 07:09:22;;;;;;;11.43;10.32;;;;;;;15.67;52.97;101814.83;1738637;82;21156;-48
2021/04/18 07:11:57;;;;;;;14.50;12.98;;;;;;;15.73;52.74;101820.78;1736791;82;21156;-48
2021/04/18 07:14:33;;;;;;;15.45;13.93;;;;;;;15.79;52.39;101819.31;1741172;82;21148;-50
2021/04/18 07:17:10;;;;;;;12.45;10.68;;;;;;;15.91;51.58;101822.08;1734871;82;21196;-48
2021/04/18 07:19:44;;;;;;;13.20;10.45;;;;;;;16.01;51.40;101820.45;1742226;82;21176;-46
2021/04/18 07:22:12;;;;;;;9.78;8.80;;;;;;;16.05;50.78;101822.56;1737080;82;21167;-46
2021/04/18 07:24:50;;;;;;;11.90;10.70;;;;;;;16.10;50.47;101823.28;1685909;82;21149;-49
2021/04/18 07:27:19;;;;;;;12.23;11.03;;;;;;;16.13;50.43;101816.20;1680970;84;21694;-46
2021/04/18 07:29:56;;;;;;;10.08;9.18;;;;;;;16.14;50.75;101819.22;1663925;85;21194;-47
2021/04/18 07:32:27;;;;;;;15.65;9.63;;;;;;;16.15;50.91;101814.39;1663192;85;21635;-50
2021/04/18 07:35:01;;;;;;;14.38;11.10;;;;;;;16.24;50.96;101821.13;1794658;79;28133;-48
2021/04/18 07:37:29;;;;;;;8.98;8.18;;;;;;;16.25;50.64;101821.11;1776841;80;21147;-47
2021/04/18 07:39:59;;;;;;;10.32;9.38;;;;;;;16.33;50.17;101823.50;1776958;80;21151;-47
2021/04/18 07:42:37;;;;;;;9.68;8.50;;;;;;;16.34;50.47;101824.38;1778974;80;21171;-47
2021/04/18 07:45:13;;;;;;;11.55;9.03;;;;;;;16.36;50.39;101816.87;1775759;80;21139;-47
2021/04/18 07:47:47;;;;;;;9.33;8.35;;;;;;;16.46;50.12;101810.88;1778416;79;23048;-49
2021/04/18 07:50:19;;;;;;;8.53;7.42;;;;;;;16.44;49.90;101810.07;1739377;82;21209;-49
2021/04/18 07:52:48;;;;;;;8.63;7.75;;;;;;;16.46;49.99;101808.26;1743122;82;21243;-45
2021/04/18 07:55:18;;;;;;;7.87;6.37;;;;;;;16.51;50.73;101806.37;1739717;82;21172;-45
2021/04/18 07:57:46;;;;;;;7.60;6.90;;;;;;;16.55;50.28;101805.41;1746472;82;21132;-49
2021/04/18 08:00:17;;;;;;;7.50;6.90;;;;;;;16.53;50.52;101800.61;1744211;82;21172;-48
2021/04/18 08:02:48;;;;;;;8.60;7.80;;;;;;;16.52;51.07;101800.23;1728438;82;21164;-49
2021/04/18 08:05:25;;;;;;;9.50;8.48;;;;;;;16.50;51.13;101804.67;1767143;79;23090;-49
2021/04/18 08:08:12;;;;;;;9.05;8.25;;;;;;;16.44;51.62;101808.75;1739300;82;21147;-49
2021/04/18 08:10:51;;;;;;;9.43;8.63;;;;;;;16.44;51.47;101803.06;1737555;82;21180;-49
2021/04/18 08:13:25;;;;;;;9.35;8.45;;;;;;;16.47;51.20;101804.70;1740188;82;21606;-48
2021/04/18 08:16:06;;;;;;;9.45;8.60;;;;;;;16.50;51.15;101803.35;1709275;83;21643;-45
2021/04/18 08:18:43;;;;;;;11.85;9.30;;;;;;;16.50;51.14;101802.04;1706850;83;21160;-49
2021/04/18 08:21:37;;;;;;;11.95;10.82;;;;;;;16.51;51.21;101805.06;1694810;84;21613;-50
2021/04/18 08:24:23;;;;;;;12.10;10.90;;;;;;;16.56;51.53;101797.47;1703761;84;21148;-48
2021/04/18 08:27:08;;;;;;;14.13;12.82;;;;;;;16.69;51.41;101794.02;1632757;87;21175;-47
2021/04/18 08:29:58;;;;;;;11.33;10.38;;;;;;;16.81;51.82;101794.95;1638161;87;21167;-48
2021/04/18 08:32:48;;;;;;;13.98;12.55;;;;;;;16.95;51.17;101790.13;1618393;88;21167;-48
2021/04/18 08:35:19;;;;;;;17.60;12.03;;;;;;;17.02;50.63;101786.41;1643322;87;21163;-49
2021/04/18 08:38:16;;;;;;;13.30;12.03;;;;;;;17.05;50.29;101788.47;1645164;87;21226;-47
2021/04/18 08:40:45;;;;;;;12.75;11.70;;;;;;;17.06;50.57;101778.82;1647154;87;21198;-45
2021/04/18 08:43:24;;;;;;;11.57;10.45;;;;;;;17.06;50.72;101782.77;1642711;87;21225;-45
2021/04/18 08:45:54;;;;;;;11.00;10.00;;;;;;;17.06;50.65;101782.77;1642387;87;21228;-48
2021/04/18 08:48:22;;;;;;;10.95;10.05;;;;;;;17.04;50.71;101778.02;1649800;87;21821;-46
2021/04/18 08:51:07;;;;;;;12.45;11.28;;;;;;;17.04;51.05;101770.13;1644393;87;21667;-48
2021/04/18 08:53:57;;;;;;;11.00;9.88;;;;;;;17.03;51.14;101766.63;1643949;87;21240;-46
2021/04/18 08:56:55;;;;;;;11.90;10.93;;;;;;;16.98;50.74;101763.75;1638451;87;21234;-49
2021/04/18 08:59:23;;;;;;;11.50;10.50;;;;;;;16.92;51.14;101769.17;1640013;87;21187;-47
2021/04/18 09:02:10;;;;;;;12.68;11.43;;;;;;;16.83;51.25;101761.59;1637634;87;21199;-45
2021/04/18 09:04:53;;;;;;;11.35;10.15;;;;;;;16.80;51.51;101751.16;1771672;79;23061;-46
2021/04/18 09:07:24;;;;;;;11.73;10.70;;;;;;;16.75;51.65;101753.96;1740583;82;21192;-46
2021/04/18 09:09:59;;;;;;;11.60;10.60;;;;;;;16.76;51.87;101748.23;1738858;82;21585;-46
2021/04/18 09:12:27;;;;;;;10.63;9.63;;;;;;;16.72;52.00;101743.53;1665504;84;21197;-46
2021/04/18 09:14:55;;;;;;;9.83;9.03;;;;;;;16.70;52.00;101750.60;1675515;85;21251;-50
2021/04/18 09:17:31;;;;;;;10.18;9.18;;;;;;;16.74;51.69;101748.73;1675642;85;21212;-46
2021/04/18 09:20:05;;;;;;;9.38;8.48;;;;;;;16.78;51.34;101746.41;1675457;85;21218;-48
2021/04/18 09:22:38;;;;;;;9.20;8.40;;;;;;;16.84;50.99;101747.53;1675618;85;21157;-49
2021/04/18 09:25:13;;;;;;;10.25;8.05;;;;;;;16.92;50.91;101751.64;1675529;85;21188;-49
2021/04/18 09:27:43;;;;;;;9.50;8.65;;;;;;;16.99;50.70;101747.05;1675453;85;21156;-47
2021/04/18 09:30:27;;;;;;;8.80;7.90;;;;;;;16.99;50.46;101749.67;1673645;85;21172;-48
2021/04/18 09:32:59;;;;;;;8.23;7.47;;;;;;;16.97;50.58;101747.55;1677059;85;21785;-49
2021/04/18 09:35:28;;;;;;;9.60;8.70;;;;;;;16.96;50.46;101745.84;1675076;85;21609;-49
2021/04/18 09:38:04;;;;;;;9.48;8.45;;;;;;;16.90;50.54;101749.96;1671402;85;21136;-50
2021/04/18 09:40:34;;;;;;;9.00;7.90;;;;;;;16.84;50.86;101751.02;1676989;85;21224;-46
2021/04/18 09:43:04;;;;;;;10.00;9.00;;;;;;;16.80;50.49;101748.53;1672842;85;21181;-46
2021/04/18 09:45:33;;;;;;;9.90;9.00;;;;;;;16.71;50.62;101751.47;1672659;85;21176;-46
2021/04/18 09:48:20;;;;;;;10.48;9.40;;;;;;;16.68;50.79;101743.67;1685313;85;21229;-49
2021/04/18 09:51:02;;;;;;;10.78;9.88;;;;;;;16.67;51.07;101748.53;1802382;79;23079;-46
2021/04/18 09:53:30;;;;;;;11.30;10.30;;;;;;;16.63;50.99;101748.22;1782649;80;21140;-48
2021/04/18 09:56:03;;;;;;;11.63;10.60;;;;;;;16.65;51.36;101745.92;1783901;80;21105;-48
2021/04/18 09:58:34;;;;;;;;;;;;;;;16.66;51.54;101738.91;1727722;83;21230;-45
2021/04/18 10:01:03;;;;;;;9.55;8.75;;;;;;;16.68;51.67;101734.02;1725339;83;20148;-45
2021/04/18 10:03:38;;;;;;;10.93;9.83;;;;;;;16.75;51.57;101732.06;1724764;83;21151;-45
2021/04/18 10:06:09;;;;;;;10.23;9.20;;;;;;;16.82;51.28;101727.00;1713303;83;21328;-46
2021/04/18 10:08:39;;;;;;;11.25;10.13;;;;;;;16.90;50.84;101727.16;1725504;83;21134;-45
2021/04/18 10:11:12;;;;;;;10.85;9.55;;;;;;;16.98;50.62;101726.94;1725457;83;21150;-47
2021/04/18 10:13:59;;;;;;;9.28;8.48;;;;;;;17.07;50.21;101731.87;1720109;83;21142;-48
2021/04/18 10:16:38;;;;;;;10.43;9.08;;;;;;;17.18;49.91;101731.08;1725215;83;21594;-50
2021/04/18 10:19:15;;;;;;;9.23;8.03;;;;;;;17.28;49.69;101733.80;1725223;83;21551;-47
2021/04/18 10:22:10;;;;;;;9.60;8.60;;;;;;;17.42;47.53;101730.23;1725439;83;21638;-48
2021/04/18 10:24:47;;;;;;;8.98;7.95;;;;;;;17.53;48.08;101736.03;1723674;83;21162;-45
2021/04/18 10:27:17;;;;;;;9.53;8.28;;;;;;;17.60;48.72;101735.33;1725129;83;21143;-45
2021/04/18 10:29:46;;;;;;;9.03;8.18;;;;;;;17.66;48.55;101740.41;1725284;83;21162;-49
2021/04/18 10:32:18;;;;;;;9.68;8.78;;;;;;;17.71;48.53;101743.27;1719992;83;21531;-48
2021/04/18 10:34:47;;;;;;;8.20;7.50;;;;;;;17.73;48.59;101745.84;1725371;83;21138;-49
2021/04/18 10:37:15;;;;;;;8.45;7.65;;;;;;;17.75;48.54;101743.57;1725262;83;21138;-48
2021/04/18 10:39:43;;;;;;;9.10;7.87;;;;;;;17.73;47.98;101740.12;1725284;83;21647;-45
2021/04/18 10:42:11;;;;;;;8.58;7.78;;;;;;;17.75;47.99;101731.72;1725138;83;21145;-48
2021/04/18 10:44:40;;;;;;;8.20;7.42;;;;;;;17.77;47.41;101728.58;1725160;83;21166;-45
2021/04/18 10:47:16;;;;;;;7.45;6.72;;;;;;;17.79;46.62;101737.28;1725320;83;21150;-50
2021/04/18 10:49:46;;;;;;;7.40;6.70;;;;;;;17.85;46.15;101737.50;1720041;83;21150;-45
2021/04/18 10:52:13;;;;;;;8.78;6.87;;;;;;;17.89;45.90;101737.34;1722504;83;21591;-45
2021/04/18 10:54:41;;;;;;;8.80;7.58;;;;;;;17.91;45.65;101735.96;1738382;80;21309;-44
2021/04/18 10:57:11;;;;;;;8.48;7.60;;;;;;;17.91;45.74;101732.50;1745926;82;21144;-48
2021/04/18 10:59:39;;;;;;;8.30;7.40;;;;;;;17.89;45.72;101728.13;1737695;82;21602;-45
2021/04/18 11:02:07;;;;;;;8.13;7.33;;;;;;;17.89;45.32;101729.89;1731933;82;21581;-46
2021/04/18 11:04:35;;;;;;;9.95;7.22;;;;;;;17.85;45.53;101730.47;1784546;80;21604;-47
2021/04/18 11:07:04;;;;;;;8.03;6.87;;;;;;;17.84;45.56;101730.09;1731330;82;21582;-50
2021/04/18 11:09:32;;;;;;;8.00;6.47;;;;;;;17.82;44.89;101729.28;1778884;80;21656;-47
2021/04/18 11:12:01;;;;;;;9.03;7.30;;;;;;;17.72;45.40;101726.55;1782170;80;21161;-45
2021/04/18 11:14:28;;;;;;;9.08;6.40;;;;;;;17.67;45.39;101719.30;1775611;80;21501;-48
2021/04/18 11:16:56;;;;;;;8.90;7.10;;;;;;;17.72;44.63;101719.97;1778785;80;21140;-46
2021/04/18 11:19:26;;;;;;;9.85;7.25;;;;;;;17.86;43.77;101714.22;1779763;80;21121;-51
2021/04/18 11:21:55;;;;;;;6.83;5.67;;;;;;;18.00;43.14;101705.80;1780703;80;21624;-48
2021/04/18 11:24:25;;;;;;;5.92;5.30;;;;;;;18.09;42.67;101708.11;1739396;81;21151;-48
2021/04/18 11:26:53;;;;;;;6.40;5.17;;;;;;;18.12;41.60;101700.07;1782475;80;21585;-47
2021/04/18 11:29:22;;;;;;;5.35;4.53;;;;;;;18.16;42.06;101700.36;1773876;80;21585;-44
2021/04/18 11:31:50;;;;;;;6.45;5.60;;;;;;;18.16;41.13;101693.77;1777787;80;21557;-47